createdAt,value
2022-09-18T00:00:52.311Z,101069.19
2022-09-18T00:03:24.568Z,101066.56
2022-09-18T00:05:56.631Z,101059.59
2022-09-18T00:08:28.812Z,101063.09
2022-09-18T00:11:06.444Z,101068.31
2022-09-18T00:13:39.455Z,101066.56
2022-09-18T00:16:15.143Z,101074.41
2022-09-18T00:18:48.114Z,101075.28
2022-09-18T00:21:24.746Z,101073.53
2022-09-18T00:23:59.016Z,101075.28
2022-09-18T00:26:31.548Z,101067.44
2022-09-18T00:29:05.061Z,101079.66
2022-09-18T00:31:37.577Z,101082.25
2022-09-18T00:34:14.524Z,101080.53
2022-09-18T00:36:46.534Z,101084.00
2022-09-18T00:39:18.446Z,101084.00
2022-09-18T00:41:50.437Z,101088.34
2022-09-18T00:44:41.135Z,101082.25
2022-09-18T00:47:28.744Z,101092.72
2022-09-18T00:50:08.235Z,101083.97
2022-09-18T00:53:02.258Z,101090.06
2022-09-18T00:55:39.673Z,101084.84
2022-09-18T00:58:12.228Z,101083.09
2022-09-18T01:00:44.283Z,101088.34
2022-09-18T01:03:16.297Z,101082.22
2022-09-18T01:06:33.726Z,101072.69
2022-09-18T01:09:28.548Z,101070.06
2022-09-18T01:12:29.517Z,101069.19
2022-09-18T01:15:21.512Z,101076.16
2022-09-18T01:18:20.747Z,101085.75
2022-09-18T01:21:05.058Z,101086.59
2022-09-18T01:24:06.641Z,101092.72
2022-09-18T01:26:57.797Z,101077.03
2022-09-18T01:30:01.005Z,101071.81
2022-09-18T01:32:42.165Z,101073.56
2022-09-18T01:35:47.173Z,101066.59
2022-09-18T01:38:34.243Z,101062.22
2022-09-18T01:41:16.748Z,101065.72
2022-09-18T01:43:54.630Z,101065.72
2022-09-18T01:46:26.914Z,101070.94
2022-09-18T01:49:28.394Z,101066.59
2022-09-18T01:52:11.028Z,101065.72
2022-09-18T01:54:46.109Z,101073.56
2022-09-18T01:57:56.377Z,101074.44
2022-09-18T02:00:30.582Z,101084.88
2022-09-18T02:03:26.488Z,101075.28
2022-09-18T02:06:02.510Z,101077.91
2022-09-18T02:08:51.195Z,101078.78
2022-09-18T02:11:23.965Z,101079.66
2022-09-18T02:14:06.148Z,101074.41
2022-09-18T02:16:46.928Z,101078.78
2022-09-18T02:19:35.756Z,101078.78
2022-09-18T02:22:14.133Z,101081.38
2022-09-18T02:24:49.479Z,101075.28
2022-09-18T02:27:23.034Z,101085.75
2022-09-18T02:29:56.426Z,101078.78
2022-09-18T02:32:28.959Z,101080.53
2022-09-18T02:35:00.925Z,101076.16
2022-09-18T02:37:59.268Z,101073.56
2022-09-18T02:41:03.251Z,101065.72
2022-09-18T02:43:55.972Z,101065.72
2022-09-18T02:46:52.063Z,101065.72
2022-09-18T02:49:55.399Z,101063.09
2022-09-18T02:52:57.541Z,101062.22
2022-09-18T02:55:48.973Z,101059.63
2022-09-18T02:58:31.584Z,101063.97
2022-09-18T03:01:05.460Z,101056.13
2022-09-18T03:03:39.533Z,101059.59
2022-09-18T03:06:11.561Z,101056.97
2022-09-18T03:08:43.596Z,101060.47
2022-09-18T03:11:15.532Z,101062.19
2022-09-18T03:13:47.549Z,101050.88
2022-09-18T03:16:19.534Z,101055.25
2022-09-18T03:18:51.469Z,101056.97
2022-09-18T03:21:23.448Z,101058.72
2022-09-18T03:23:55.712Z,101063.06
2022-09-18T03:26:27.742Z,101056.09
2022-09-18T03:29:00.071Z,101065.69
2022-09-18T03:31:32.116Z,101060.47
2022-09-18T03:34:04.800Z,101063.06
2022-09-18T03:36:36.954Z,101059.59
2022-09-18T03:39:08.845Z,101065.69
2022-09-18T03:41:40.773Z,101066.56
2022-09-18T03:44:12.649Z,101058.69
2022-09-18T03:46:44.654Z,101049.09
2022-09-18T03:49:16.636Z,101054.31
2022-09-18T03:51:48.518Z,101063.91
2022-09-18T03:54:20.459Z,101050.84
2022-09-18T03:56:52.523Z,101047.38
2022-09-18T03:59:24.419Z,101052.59
2022-09-18T04:01:57.639Z,101063.03
2022-09-18T04:04:30.027Z,101066.56
2022-09-18T04:07:02.219Z,101065.69
2022-09-18T04:09:34.789Z,101073.53
2022-09-18T04:12:07.065Z,101070.91
2022-09-18T04:14:38.973Z,101061.38
2022-09-18T04:17:11.204Z,101069.19
2022-09-18T04:19:43.088Z,101056.97
2022-09-18T04:22:15.055Z,101053.50
2022-09-18T04:24:47.515Z,101051.75
2022-09-18T04:27:19.676Z,101051.75
2022-09-18T04:29:51.598Z,101061.34
2022-09-18T04:32:23.524Z,101055.25
2022-09-18T04:34:55.487Z,101053.50
2022-09-18T04:37:27.570Z,101045.66
2022-09-18T04:39:59.524Z,101045.66
2022-09-18T04:42:32.341Z,101031.69
2022-09-18T04:45:04.992Z,101033.47
2022-09-18T04:47:37.068Z,101036.97
2022-09-18T04:50:10.962Z,101043.91
2022-09-18T04:52:44.004Z,101066.56
2022-09-18T04:55:15.977Z,101051.75
2022-09-18T04:57:51.231Z,101050.00
2022-09-18T05:00:26.370Z,101043.91
2022-09-18T05:02:58.395Z,101039.56
2022-09-18T05:05:30.584Z,101030.88
2022-09-18T05:08:03.922Z,101030.00
2022-09-18T05:10:35.892Z,101029.09
2022-09-18T05:13:07.840Z,101027.34
2022-09-18T05:15:39.763Z,101028.22
2022-09-18T05:18:12.645Z,101028.25
2022-09-18T05:20:44.529Z,101042.19
2022-09-18T05:23:16.723Z,101040.41
2022-09-18T05:25:48.671Z,101034.31
2022-09-18T05:28:20.609Z,101031.69
2022-09-18T05:30:52.600Z,101037.78
2022-09-18T05:33:24.505Z,101037.78
2022-09-18T05:35:57.909Z,101036.91
2022-09-18T05:38:29.915Z,101039.53
2022-09-18T05:41:03.067Z,101039.53
2022-09-18T05:43:35.113Z,101051.72
2022-09-18T05:46:07.179Z,101042.13
2022-09-18T05:48:39.340Z,101042.13
2022-09-18T05:51:11.278Z,101038.66
2022-09-18T05:53:48.342Z,101042.16
2022-09-18T05:56:20.369Z,101043.88
2022-09-18T05:58:52.371Z,101048.25
2022-09-18T06:01:24.528Z,101040.44
2022-09-18T06:03:56.653Z,101040.44
2022-09-18T06:06:29.809Z,101035.22
2022-09-18T06:09:01.736Z,101040.47
2022-09-18T06:11:33.970Z,101053.53
2022-09-18T06:14:06.074Z,101052.59
2022-09-18T06:16:42.111Z,101051.69
2022-09-18T06:19:14.467Z,101048.22
2022-09-18T06:21:46.605Z,101045.59
2022-09-18T06:24:18.614Z,101035.16
2022-09-18T06:26:50.540Z,101032.50
2022-09-18T06:29:22.484Z,101025.56
2022-09-18T06:31:54.517Z,101024.75
2022-09-18T06:34:26.521Z,101032.56
2022-09-18T06:36:58.423Z,101036.03
2022-09-18T06:39:30.317Z,101044.72
2022-09-18T06:42:02.318Z,101039.47
2022-09-18T06:44:34.239Z,101036.00
2022-09-18T06:47:09.469Z,101046.44
2022-09-18T06:49:42.557Z,101035.97
2022-09-18T06:52:14.757Z,101038.53
2022-09-18T06:54:47.848Z,101048.88
2022-09-18T06:57:20.114Z,101040.16
2022-09-18T06:59:52.018Z,101043.59
2022-09-18T07:02:23.970Z,101053.19
2022-09-18T07:04:56.025Z,101047.06
2022-09-18T07:07:27.917Z,101051.31
2022-09-18T07:09:59.958Z,101048.53
2022-09-18T07:12:31.953Z,101053.69
2022-09-18T07:15:04.209Z,101047.59
2022-09-18T07:17:36.165Z,101065.97
2022-09-18T07:20:10.039Z,101054.56
2022-09-18T07:22:47.117Z,101070.28
2022-09-18T07:25:19.540Z,101073.75
2022-09-18T07:27:51.623Z,101072.97
2022-09-18T07:30:23.638Z,101067.78
2022-09-18T07:32:55.728Z,101063.50
2022-09-18T07:35:28.599Z,101058.28
2022-09-18T07:38:02.419Z,101054.75
2022-09-18T07:40:34.973Z,101052.16
2022-09-18T07:43:09.922Z,101046.09
2022-09-18T07:45:44.829Z,101046.97
2022-09-18T07:48:16.777Z,101052.16
2022-09-18T07:50:49.000Z,101038.84
2022-09-18T07:53:21.428Z,101040.50
2022-09-18T07:55:56.088Z,101046.56
2022-09-18T07:58:28.143Z,101049.16
2022-09-18T08:01:04.789Z,101041.97
2022-09-18T08:03:41.228Z,101034.69
2022-09-18T08:06:13.696Z,101039.41
2022-09-18T08:08:46.806Z,101031.88
2022-09-18T08:11:22.501Z,101027.88
2022-09-18T08:13:57.563Z,101035.00
2022-09-18T08:16:29.554Z,101053.28
2022-09-18T08:19:01.688Z,101039.34
2022-09-18T08:21:33.866Z,101040.84
2022-09-18T08:24:06.194Z,101026.22
2022-09-18T08:26:38.841Z,101038.63
2022-09-18T08:29:10.860Z,101025.00
2022-09-18T08:31:42.898Z,101033.75
2022-09-18T08:34:15.502Z,101019.75
2022-09-18T08:36:47.544Z,101031.03
2022-09-18T08:39:19.508Z,101025.44
2022-09-18T08:42:57.656Z,101017.31
2022-09-18T08:46:00.862Z,101018.97
2022-09-18T08:48:43.240Z,101019.63
2022-09-18T08:51:31.220Z,101020.41
2022-09-18T08:55:08.328Z,101015.91
2022-09-18T08:57:49.782Z,101014.06
2022-09-18T09:00:42.706Z,101008.44
2022-09-18T09:03:42.828Z,101004.00
2022-09-18T09:07:10.329Z,101013.06
2022-09-18T09:10:13.384Z,101001.13
2022-09-18T09:13:05.018Z,100998.38
2022-09-18T09:15:48.375Z,100999.13
2022-09-18T09:18:41.361Z,100983.72
2022-09-18T09:21:38.513Z,100984.41
2022-09-18T09:24:31.431Z,100983.66
2022-09-18T09:27:22.354Z,100975.59
2022-09-18T09:30:21.165Z,100968.53
2022-09-18T09:33:00.567Z,100961.69
2022-09-18T09:35:43.053Z,100958.50
2022-09-18T09:38:52.377Z,100960.81
2022-09-18T09:41:42.614Z,100953.81
2022-09-18T09:44:21.801Z,100960.78
2022-09-18T09:47:15.471Z,100947.44
2022-09-18T09:50:09.111Z,100944.03
2022-09-18T09:52:47.451Z,100944.44
2022-09-18T09:55:35.305Z,100944.28
2022-09-18T09:58:43.453Z,100956.13
2022-09-18T10:01:27.311Z,100969.28
2022-09-18T10:04:02.204Z,100983.22
2022-09-18T10:06:52.250Z,100990.78
2022-09-18T10:10:17.050Z,101028.78
2022-09-18T10:13:03.047Z,101011.00
2022-09-18T10:15:49.263Z,101000.94
2022-09-18T10:18:31.183Z,100997.66
2022-09-18T10:21:14.534Z,101022.31
2022-09-18T10:24:26.766Z,101001.69
2022-09-18T10:27:12.324Z,100995.72
2022-09-18T10:29:44.443Z,100996.69
2022-09-18T10:32:41.900Z,101010.75
2022-09-18T10:35:29.582Z,101008.16
2022-09-18T10:38:01.668Z,101009.94
2022-09-18T10:40:37.850Z,101020.38
2022-09-18T10:43:18.924Z,101018.63
2022-09-18T10:45:56.317Z,101009.00
2022-09-18T10:48:29.462Z,101009.88
2022-09-18T10:51:04.395Z,101012.44
2022-09-18T10:53:42.725Z,101008.94
2022-09-18T10:56:20.582Z,101009.78
2022-09-18T10:58:55.945Z,100991.47
2022-09-18T11:01:29.612Z,100998.38
2022-09-18T11:04:04.486Z,100994.00
2022-09-18T11:06:37.863Z,100991.22
2022-09-18T11:09:18.452Z,100985.50
2022-09-18T11:11:51.522Z,100985.47
2022-09-18T11:14:50.705Z,100964.28
2022-09-18T11:17:29.302Z,100950.38
2022-09-18T11:20:03.833Z,100948.88
2022-09-18T11:22:44.560Z,100942.75
2022-09-18T11:25:21.717Z,100936.00
2022-09-18T11:27:58.540Z,100939.94
2022-09-18T11:30:36.184Z,100934.03
2022-09-18T11:33:30.671Z,100935.47
2022-09-18T11:36:07.930Z,100930.38
2022-09-18T11:38:45.731Z,100911.06
2022-09-18T11:41:36.948Z,100919.16
2022-09-18T11:44:17.044Z,100921.09
2022-09-18T11:47:20.800Z,100922.91
2022-09-18T11:50:02.288Z,100907.19
2022-09-18T11:52:51.916Z,100902.25
2022-09-18T11:55:40.196Z,100913.00
2022-09-18T11:58:18.656Z,100911.44
2022-09-18T12:01:43.302Z,100903.72
2022-09-18T12:04:42.296Z,100901.41
2022-09-18T12:07:38.392Z,100903.81
2022-09-18T12:10:54.157Z,100952.03
2022-09-18T12:13:58.775Z,100955.91
2022-09-18T12:17:01.269Z,100954.59
2022-09-18T12:19:38.241Z,100939.59
2022-09-18T12:22:20.168Z,100923.41
2022-09-18T12:24:52.166Z,100909.69
2022-09-18T12:28:02.343Z,100931.88
2022-09-18T12:30:54.275Z,100929.72
2022-09-18T12:34:19.294Z,100933.69
2022-09-18T12:37:05.759Z,100931.63
2022-09-18T12:40:09.699Z,100949.00
2022-09-18T12:43:01.798Z,100956.72
2022-09-18T12:46:11.153Z,100953.91
2022-09-18T12:49:55.233Z,100947.94
2022-09-18T12:53:10.287Z,100939.56
2022-09-18T12:56:06.931Z,100948.38
2022-09-18T12:59:10.985Z,100943.16
2022-09-18T13:01:56.664Z,100942.16
2022-09-18T13:04:39.185Z,100934.19
2022-09-18T13:07:22.221Z,100931.91
2022-09-18T13:10:06.135Z,100922.28
2022-09-18T13:13:04.448Z,100919.59
2022-09-18T13:15:46.410Z,100919.22
2022-09-18T13:18:31.750Z,100909.03
2022-09-18T13:21:16.088Z,100904.34
2022-09-18T13:23:49.491Z,100897.41
2022-09-18T13:26:24.722Z,100885.50
2022-09-18T13:28:57.033Z,100888.84
2022-09-18T13:31:32.161Z,100898.31
2022-09-18T13:34:16.734Z,100891.91
2022-09-18T13:36:48.666Z,100893.88
2022-09-18T13:39:37.587Z,100891.91
2022-09-18T13:42:32.360Z,100888.59
2022-09-18T13:45:20.855Z,100883.97
2022-09-18T13:48:35.540Z,100927.47
2022-09-18T13:51:33.102Z,100932.03
2022-09-18T13:54:11.169Z,100914.41
2022-09-18T13:57:02.909Z,100932.25
2022-09-18T13:59:47.518Z,100907.50
2022-09-18T14:02:31.611Z,100899.53
2022-09-18T14:05:38.121Z,100899.31
2022-09-18T14:08:19.391Z,100898.00
2022-09-18T14:11:17.234Z,100886.91
2022-09-18T14:13:54.371Z,100892.06
2022-09-18T14:16:33.190Z,100883.19
2022-09-18T14:19:30.635Z,100883.84
2022-09-18T14:22:03.042Z,100879.25
2022-09-18T14:24:50.520Z,100880.13
2022-09-18T14:27:36.296Z,100879.16
2022-09-18T14:30:27.015Z,100880.53
2022-09-18T14:33:26.237Z,100872.94
2022-09-18T14:36:05.025Z,100870.09
2022-09-18T14:38:38.899Z,100869.53
2022-09-18T14:41:23.497Z,100869.56
2022-09-18T14:44:01.843Z,100872.16
2022-09-18T14:46:34.113Z,100881.25
2022-09-18T14:49:34.498Z,100885.31
2022-09-18T14:52:29.394Z,100867.06
2022-09-18T14:55:19.486Z,100863.22
2022-09-18T14:57:59.195Z,100855.84
2022-09-18T15:00:34.246Z,100849.53
2022-09-18T15:03:18.585Z,100854.09
2022-09-18T15:05:55.775Z,100846.25
2022-09-18T15:08:27.961Z,100848.03
2022-09-18T15:11:00.061Z,100846.34
2022-09-18T15:13:37.832Z,100855.13
2022-09-18T15:16:27.471Z,100864.69
2022-09-18T15:19:00.681Z,100878.03
2022-09-18T15:21:34.011Z,100887.22
2022-09-18T15:24:06.427Z,100887.34
2022-09-18T15:26:47.878Z,100881.28
2022-09-18T15:29:26.973Z,100871.97
2022-09-18T15:32:02.216Z,100865.06
2022-09-18T15:34:46.505Z,100896.69
2022-09-18T15:37:23.887Z,100904.59
2022-09-18T15:40:09.384Z,100900.44
2022-09-18T15:42:53.286Z,100908.53
2022-09-18T15:45:29.083Z,100898.97
2022-09-18T15:48:40.005Z,100895.63
2022-09-18T15:51:28.886Z,100882.53
2022-09-18T15:54:13.236Z,100885.25
2022-09-18T15:56:58.520Z,100887.88
2022-09-18T15:59:40.827Z,100884.34
2022-09-18T16:02:32.165Z,100883.47
2022-09-18T16:05:12.237Z,100876.38
2022-09-18T16:08:06.276Z,100871.91
2022-09-18T16:10:51.128Z,100855.16
2022-09-18T16:13:22.997Z,100848.06
2022-09-18T16:16:23.871Z,100845.25
2022-09-18T16:19:10.353Z,100840.69
2022-09-18T16:21:44.175Z,100836.38
2022-09-18T16:24:29.744Z,100837.13
2022-09-18T16:27:08.287Z,100851.03
2022-09-18T16:29:40.398Z,100838.81
2022-09-18T16:32:13.223Z,100845.84
2022-09-18T16:34:46.807Z,100848.44
2022-09-18T16:37:19.224Z,100843.31
2022-09-18T16:39:51.185Z,100836.22
2022-09-18T16:42:23.922Z,100841.50
2022-09-18T16:44:55.874Z,100840.63
2022-09-18T16:47:27.859Z,100838.00
2022-09-18T16:50:00.412Z,100831.09
2022-09-18T16:52:32.330Z,100832.00
2022-09-18T16:55:04.723Z,100828.38
2022-09-18T16:57:36.870Z,100830.13
2022-09-18T17:00:10.712Z,100831.91
2022-09-18T17:02:42.821Z,100825.78
2022-09-18T17:05:15.621Z,100835.41
2022-09-18T17:07:47.609Z,100844.97
2022-09-18T17:10:19.565Z,100842.41
2022-09-18T17:12:51.508Z,100841.63
2022-09-18T17:15:23.557Z,100840.03
2022-09-18T17:17:55.760Z,100850.88
2022-09-18T17:20:27.731Z,100843.22
2022-09-18T17:22:59.849Z,100849.41
2022-09-18T17:25:31.832Z,100832.94
2022-09-18T17:28:03.877Z,100828.75
2022-09-18T17:30:39.255Z,100822.66
2022-09-18T17:33:11.463Z,100820.97
2022-09-18T17:35:43.444Z,100821.94
2022-09-18T17:38:16.084Z,100819.28
2022-09-18T17:41:00.675Z,100821.97
2022-09-18T17:43:33.166Z,100826.31
2022-09-18T17:46:09.343Z,100820.16
2022-09-18T17:48:41.720Z,100821.06
2022-09-18T17:51:18.637Z,100825.47
2022-09-18T17:53:57.602Z,100818.47
2022-09-18T17:56:30.568Z,100814.09
2022-09-18T17:59:09.778Z,100805.41
2022-09-18T18:01:46.190Z,100806.31
2022-09-18T18:04:18.267Z,100804.53
2022-09-18T18:06:50.308Z,100799.28
2022-09-18T18:09:22.834Z,100808.88
2022-09-18T18:11:55.244Z,100817.59
2022-09-18T18:14:31.259Z,100814.06
2022-09-18T18:17:04.188Z,100819.31
2022-09-18T18:19:36.124Z,100827.16
2022-09-18T18:22:08.099Z,100835.81
2022-09-18T18:24:40.124Z,100838.38
2022-09-18T18:27:12.170Z,100830.50
2022-09-18T18:29:45.568Z,100843.63
2022-09-18T18:32:18.388Z,100848.06
2022-09-18T18:34:50.543Z,100868.19
2022-09-18T18:37:22.499Z,100905.78
2022-09-18T18:39:54.495Z,100898.91
2022-09-18T18:42:28.319Z,100905.03
2022-09-18T18:45:01.118Z,100906.78
2022-09-18T18:47:33.183Z,100904.16
2022-09-18T18:50:06.789Z,100906.78
2022-09-18T18:52:38.719Z,100894.56
2022-09-18T18:55:10.971Z,100897.16
2022-09-18T18:57:42.939Z,100904.09
2022-09-18T19:00:14.960Z,100899.75
2022-09-18T19:02:49.007Z,100895.38
2022-09-18T19:05:27.788Z,100904.03
2022-09-18T19:07:59.737Z,100904.88
2022-09-18T19:10:31.981Z,100910.09
2022-09-18T19:13:04.777Z,100922.31
2022-09-18T19:15:38.525Z,100920.53
2022-09-18T19:18:10.660Z,100926.66
2022-09-18T19:20:42.574Z,100926.66
2022-09-18T19:23:16.460Z,100925.81
2022-09-18T19:25:48.413Z,100924.03
2022-09-18T19:28:20.435Z,100931.03
2022-09-18T19:30:53.792Z,100931.03
2022-09-18T19:33:26.301Z,100931.03
2022-09-18T19:36:07.544Z,100924.06
2022-09-18T19:38:39.751Z,100939.75
2022-09-18T19:41:39.703Z,100944.13
2022-09-18T19:45:01.869Z,100938.03
2022-09-18T19:47:50.962Z,100950.25
2022-09-18T19:50:29.111Z,100945.00
2022-09-18T19:53:02.066Z,100957.22
2022-09-18T19:55:34.242Z,100958.09
2022-09-18T19:58:07.248Z,100967.69
2022-09-18T20:00:42.339Z,100972.03
2022-09-18T20:03:15.401Z,100977.28
2022-09-18T20:05:47.825Z,100982.53
2022-09-18T20:08:19.841Z,100979.03
2022-09-18T20:10:52.242Z,100987.75
2022-09-18T20:13:26.284Z,100997.34
2022-09-18T20:16:07.077Z,101000.91
2022-09-18T20:18:39.483Z,101010.50
2022-09-18T20:21:15.973Z,101014.00
2022-09-18T20:23:48.450Z,101017.50
2022-09-18T20:26:20.427Z,101023.59
2022-09-18T20:28:52.678Z,101027.94
2022-09-18T20:31:25.126Z,101023.56
2022-09-18T20:33:58.548Z,101024.44
2022-09-18T20:36:32.147Z,101034.91
2022-09-18T20:39:04.240Z,101034.06
2022-09-18T20:41:36.258Z,101043.72
2022-09-18T20:44:08.734Z,101038.47
2022-09-18T20:46:42.539Z,101042.81
2022-09-18T20:49:17.529Z,101057.66
2022-09-18T20:51:50.241Z,101055.91
2022-09-18T20:54:22.883Z,101061.16
2022-09-18T20:56:54.901Z,101053.28
2022-09-18T20:59:27.080Z,101054.13
2022-09-18T21:01:59.033Z,101058.50
2022-09-18T21:04:31.029Z,101067.22
2022-09-18T21:07:03.269Z,101063.72
2022-09-18T21:09:35.304Z,101064.56
2022-09-18T21:12:07.337Z,101064.56
2022-09-18T21:14:39.261Z,101071.53
2022-09-18T21:17:11.238Z,101076.78
2022-09-18T21:19:43.127Z,101074.16
2022-09-18T21:22:15.045Z,101079.41
2022-09-18T21:24:46.959Z,101081.16
2022-09-18T21:27:18.861Z,101073.31
2022-09-18T21:29:50.788Z,101082.03
2022-09-18T21:32:23.246Z,101085.53
2022-09-18T21:34:55.176Z,101081.16
2022-09-18T21:37:27.110Z,101096.88
2022-09-18T21:39:59.058Z,101103.00
2022-09-18T21:42:31.079Z,101105.59
2022-09-18T21:45:03.538Z,101109.94
2022-09-18T21:47:36.263Z,101109.97
2022-09-18T21:50:08.592Z,101116.91
2022-09-18T21:52:42.855Z,101119.50
2022-09-18T21:55:14.831Z,101117.78
2022-09-18T21:57:47.023Z,101109.94
2022-09-18T22:00:18.977Z,101119.53
2022-09-18T22:02:54.807Z,101121.28
2022-09-18T22:05:29.413Z,101126.50
2022-09-18T22:08:01.682Z,101132.63
2022-09-18T22:10:35.295Z,101132.63
2022-09-18T22:13:07.207Z,101136.13
2022-09-18T22:15:39.089Z,101142.22
2022-09-18T22:18:11.174Z,101149.19
2022-09-18T22:20:43.099Z,101144.84
2022-09-18T22:23:14.991Z,101150.94
2022-09-18T22:25:46.927Z,101148.31
2022-09-18T22:28:18.924Z,101154.41
2022-09-18T22:30:51.007Z,101156.16
2022-09-18T22:33:26.157Z,101153.56
2022-09-18T22:36:06.421Z,101171.00
2022-09-18T22:38:38.367Z,101163.16
2022-09-18T22:41:10.498Z,101175.38
2022-09-18T22:43:42.528Z,101184.09
2022-09-18T22:46:16.993Z,101182.34
2022-09-18T22:48:49.688Z,101180.59
2022-09-18T22:51:27.336Z,101189.34
2022-09-18T22:54:07.806Z,101193.69
2022-09-18T22:56:45.423Z,101187.63
2022-09-18T22:59:20.109Z,101195.47
2022-09-18T23:01:55.363Z,101200.72
2022-09-18T23:04:31.746Z,101201.59
2022-09-18T23:07:04.304Z,101202.47
2022-09-18T23:09:36.250Z,101204.22
2022-09-18T23:12:08.172Z,101210.31
2022-09-18T23:14:40.189Z,101219.03
2022-09-18T23:17:12.536Z,101215.56
2022-09-18T23:19:44.497Z,101229.50
2022-09-18T23:22:16.420Z,101223.41
2022-09-18T23:24:49.288Z,101224.28
2022-09-18T23:27:21.214Z,101220.78
2022-09-18T23:29:53.158Z,101219.94
2022-09-18T23:32:25.230Z,101229.50
2022-09-18T23:34:57.181Z,101224.28
2022-09-18T23:37:29.523Z,101231.25
2022-09-18T23:40:01.971Z,101239.09
2022-09-18T23:42:33.913Z,101237.38
2022-09-18T23:45:06.499Z,101245.22
2022-09-18T23:47:38.448Z,101241.72
2022-09-18T23:50:10.367Z,101253.06
2022-09-18T23:52:43.674Z,101259.16
2022-09-18T23:55:15.760Z,101256.50
2022-09-18T23:57:47.696Z,101259.13
